Portada
METAR-TAF:

METAR-TAF

Aeroports :

Joensuu, Finlàndia

latitud: 62-40N, longitud: 029-38E, altitud: 119 m

Observació

L'informe es va fer fa 40 minuts, a les 06:50 UTC
Vent 8 kt del Nord/Nord-Oest, variant entre Oest/Nord-Oest i Nord
Temperatura 16°C
Humitat 77%
Pressió 1012 hPa
Visibilitat 10 km o més
sense núvols per sota de 1500 mi sense presència de cumulonimbus.

METAR: EFJO 200650Z AUTO 34008KT 290V010 CAVOK 16/12 Q1012

Hora: 10:30 (07:30 UTC)

Pronòstic

L'informe es va fer fa 2 hores i 2 minuts, a les 05:28 UTC
Pronòstic vàlid del 20 a les 06 UTC al 20 a les 15 UTC
Vent 5 kt del Nord/Nord-Oest
Visibilitat 10 km o més
sense núvols per sota de 1500 mi sense presència de cumulonimbus.
Temporalment
l' 20 a les 06 UTC al 20 a les 07 UTC
Escasses núvols a una alçada de 4500 ft, Cumulus congestus.

TAF: EFJO 200528Z 2006/2015 33005KT CAVOK TEMPO 2006/2007 FEW045TCU

Observacions i pronòstics meteorològics de més de 4000 aeroports (METAR i TAF).

Les estacions disponibles són els punts grocs i vermells al mapa.

Posi el ratolí al punt desitjat per veure el nom de l'estació.

Feu clic per veure les observacions i els pronòstics meteorològics.

Per canviar el mapa: feu clic els botons verds amb una creu de color negre per apropar; al botó verd amb un guió per allunyar la imatge; o en les fletxes verdes per a mapes adjacents.


METAR-TAF: